createdAt,value
2022-10-18T00:00:02.383Z,38.05
2022-10-18T00:02:34.337Z,37.84
2022-10-18T00:05:05.334Z,37.77
2022-10-18T00:07:35.438Z,38.13
2022-10-18T00:10:07.223Z,38.08
2022-10-18T00:12:39.207Z,37.90
2022-10-18T00:15:10.595Z,37.72
2022-10-18T00:17:41.784Z,38.14
2022-10-18T00:20:12.944Z,38.29
2022-10-18T00:22:43.996Z,37.63
2022-10-18T00:25:14.928Z,37.45
2022-10-18T00:27:45.059Z,36.86
2022-10-18T00:30:16.250Z,37.31
2022-10-18T00:32:46.351Z,36.69
2022-10-18T00:35:16.532Z,36.04
2022-10-18T00:37:47.671Z,36.28
2022-10-18T00:40:17.059Z,35.21
2022-10-18T00:42:47.140Z,35.54
2022-10-18T00:45:28.693Z,34.90
2022-10-18T00:48:03.192Z,35.23
2022-10-18T00:50:36.979Z,35.09
2022-10-18T00:53:11.858Z,34.34
2022-10-18T00:55:42.181Z,34.46
2022-10-18T00:58:14.952Z,34.50
2022-10-18T01:00:45.155Z,34.57
2022-10-18T01:03:15.422Z,34.13
2022-10-18T01:05:48.495Z,33.95
2022-10-18T01:08:28.934Z,33.67
2022-10-18T01:11:15.425Z,34.03
2022-10-18T01:13:57.511Z,34.14
2022-10-18T01:16:30.328Z,33.79
2022-10-18T01:19:03.495Z,33.88
2022-10-18T01:21:51.734Z,34.00
2022-10-18T01:24:40.083Z,32.06
2022-10-18T01:27:31.327Z,33.67
2022-10-18T01:30:20.241Z,33.32
2022-10-18T01:32:54.749Z,33.29
2022-10-18T01:35:31.720Z,32.87
2022-10-18T01:38:06.561Z,33.27
2022-10-18T01:40:38.755Z,33.39
2022-10-18T01:43:11.699Z,33.35
2022-10-18T01:45:43.602Z,33.39
2022-10-18T01:48:15.992Z,32.51
2022-10-18T01:50:46.206Z,33.18
2022-10-18T01:53:34.930Z,32.86
2022-10-18T01:56:26.282Z,31.55
2022-10-18T01:59:17.630Z,32.44
2022-10-18T02:01:59.864Z,31.74
2022-10-18T02:04:43.656Z,32.06
2022-10-18T02:07:21.883Z,32.65
2022-10-18T02:10:07.350Z,33.54
2022-10-18T02:12:43.016Z,33.40
2022-10-18T02:15:18.906Z,33.20
2022-10-18T02:17:49.173Z,33.05
2022-10-18T02:20:24.350Z,32.59
2022-10-18T02:22:58.528Z,32.60
2022-10-18T02:25:31.879Z,32.97
2022-10-18T02:28:02.973Z,33.19
2022-10-18T02:30:59.758Z,33.12
2022-10-18T02:33:29.777Z,32.86
2022-10-18T02:36:12.592Z,33.21
2022-10-18T02:38:47.669Z,33.18
2022-10-18T02:41:28.296Z,33.32
2022-10-18T02:43:57.768Z,33.01
2022-10-18T02:49:02.675Z,33.01
2022-10-18T02:51:33.103Z,32.51
2022-10-18T02:54:03.215Z,32.35
2022-10-18T02:56:34.126Z,32.21
2022-10-18T02:59:06.339Z,30.23
2022-10-18T03:01:39.295Z,31.18
2022-10-18T03:04:10.174Z,31.01
2022-10-18T03:06:43.652Z,31.49
2022-10-18T03:09:13.722Z,30.15
2022-10-18T03:11:43.811Z,31.77
2022-10-18T03:14:13.968Z,32.25
2022-10-18T03:16:44.249Z,30.29
2022-10-18T03:19:14.558Z,29.17
2022-10-18T03:21:44.751Z,30.74
2022-10-18T03:24:14.879Z,31.55
2022-10-18T03:26:45.078Z,31.43
2022-10-18T03:29:15.695Z,29.94
2022-10-18T03:31:45.884Z,28.25
2022-10-18T03:34:17.211Z,31.32
2022-10-18T03:36:47.978Z,28.72
2022-10-18T03:39:18.251Z,30.28
2022-10-18T03:41:48.460Z,30.49
2022-10-18T03:44:18.580Z,28.81
2022-10-18T03:46:48.785Z,27.56
2022-10-18T03:49:18.907Z,28.40
2022-10-18T03:51:49.607Z,30.15
2022-10-18T03:54:20.311Z,30.51
2022-10-18T03:56:50.791Z,29.51
2022-10-18T03:59:20.934Z,29.30
2022-10-18T04:01:51.553Z,30.14
2022-10-18T04:04:21.849Z,30.20
2022-10-18T04:06:52.061Z,28.10
2022-10-18T04:09:22.835Z,29.76
2022-10-18T04:11:53.927Z,28.48
2022-10-18T04:14:24.677Z,29.15
2022-10-18T04:16:54.862Z,30.10
2022-10-18T04:19:24.980Z,28.72
2022-10-18T04:21:56.189Z,30.10
2022-10-18T04:24:26.690Z,29.07
2022-10-18T04:26:56.946Z,29.90
2022-10-18T04:29:27.217Z,29.08
2022-10-18T04:31:57.636Z,28.22
2022-10-18T04:34:28.046Z,30.22
2022-10-18T04:36:58.672Z,29.57
2022-10-18T04:39:28.849Z,29.14
2022-10-18T04:41:59.004Z,29.13
2022-10-18T04:44:29.856Z,29.82
2022-10-18T04:47:00.074Z,29.29
2022-10-18T04:49:30.621Z,29.15
2022-10-18T04:52:00.827Z,29.26
2022-10-18T04:54:30.888Z,24.05
2022-10-18T04:57:01.075Z,29.34
2022-10-18T04:59:31.802Z,28.85
2022-10-18T05:04:32.077Z,28.67
2022-10-18T05:07:04.227Z,25.90
2022-10-18T05:09:35.141Z,29.10
2022-10-18T05:12:06.033Z,29.29
2022-10-18T05:14:36.449Z,29.11
2022-10-18T05:17:06.631Z,28.60
2022-10-18T05:19:36.821Z,27.69
2022-10-18T05:22:06.960Z,28.94
2022-10-18T05:24:37.270Z,28.41
2022-10-18T05:27:07.520Z,29.68
2022-10-18T05:29:37.661Z,28.30
2022-10-18T05:32:08.433Z,28.83
2022-10-18T05:34:39.306Z,28.63
2022-10-18T05:37:09.675Z,28.13
2022-10-18T05:39:40.798Z,27.33
2022-10-18T05:42:12.569Z,28.82
2022-10-18T05:44:43.013Z,27.86
2022-10-18T05:47:12.849Z,27.85
2022-10-18T05:49:42.887Z,28.61
2022-10-18T05:52:13.045Z,28.21
2022-10-18T05:54:43.488Z,27.03
2022-10-18T05:57:13.608Z,28.63
2022-10-18T05:59:43.761Z,27.94
2022-10-18T06:02:14.742Z,27.44
2022-10-18T06:04:45.051Z,28.08
2022-10-18T06:07:15.717Z,27.04
2022-10-18T06:09:45.225Z,27.86
2022-10-18T06:12:15.410Z,27.48
2022-10-18T06:14:46.278Z,27.94
2022-10-18T06:17:16.773Z,28.44
2022-10-18T06:19:52.500Z,28.51
2022-10-18T06:22:22.918Z,28.77
2022-10-18T06:24:57.166Z,27.76
2022-10-18T06:27:27.740Z,28.16
2022-10-18T06:29:57.866Z,26.69
2022-10-18T06:32:28.162Z,27.34
2022-10-18T06:34:58.901Z,27.27
2022-10-18T06:37:32.230Z,28.03
2022-10-18T06:40:03.565Z,27.51
2022-10-18T06:42:34.893Z,27.27
2022-10-18T06:45:05.715Z,27.44
2022-10-18T06:47:35.784Z,26.97
2022-10-18T06:50:06.171Z,27.67
2022-10-18T06:52:36.541Z,27.18
2022-10-18T06:55:09.154Z,27.60
2022-10-18T06:57:39.474Z,27.09
2022-10-18T07:00:10.501Z,27.26
2022-10-18T07:02:42.631Z,26.90
2022-10-18T07:05:13.890Z,26.36
2022-10-18T07:07:44.146Z,27.03
2022-10-18T07:10:14.736Z,26.87
2022-10-18T07:12:44.879Z,25.49
2022-10-18T07:15:15.013Z,26.76
2022-10-18T07:17:49.284Z,26.67
2022-10-18T07:20:19.809Z,25.85
2022-10-18T07:22:49.956Z,26.48
2022-10-18T07:25:20.706Z,27.34
2022-10-18T07:27:50.779Z,27.22
2022-10-18T07:30:20.984Z,26.77
2022-10-18T07:32:53.809Z,25.06
2022-10-18T07:35:24.144Z,25.23
2022-10-18T07:37:54.695Z,25.37
2022-10-18T07:40:25.072Z,27.19
2022-10-18T07:42:55.466Z,27.00
2022-10-18T07:45:25.650Z,26.96
2022-10-18T07:47:59.293Z,27.02
2022-10-18T07:50:29.707Z,26.16
2022-10-18T07:52:59.755Z,26.82
2022-10-18T07:55:29.896Z,26.32
2022-10-18T07:58:02.798Z,27.04
2022-10-18T08:00:33.517Z,27.20
2022-10-18T08:03:03.601Z,26.65
2022-10-18T08:05:34.543Z,26.25
2022-10-18T08:08:07.886Z,26.79
2022-10-18T08:10:38.966Z,26.61
2022-10-18T08:13:09.409Z,27.37
2022-10-18T08:15:39.603Z,26.29
2022-10-18T08:18:09.149Z,26.84
2022-10-18T08:20:39.598Z,26.51
2022-10-18T08:23:10.283Z,26.98
2022-10-18T08:25:40.990Z,26.00
2022-10-18T08:28:11.441Z,27.20
2022-10-18T08:30:43.529Z,26.84
2022-10-18T08:33:13.960Z,27.52
2022-10-18T08:35:44.550Z,27.87
2022-10-18T08:38:18.037Z,27.97
2022-10-18T08:40:49.508Z,27.80
2022-10-18T08:43:49.075Z,28.06
2022-10-18T08:46:20.160Z,27.58
2022-10-18T08:48:55.555Z,28.34
2022-10-18T08:51:46.754Z,28.33
2022-10-18T08:54:24.408Z,28.16
2022-10-18T08:57:04.928Z,28.42
2022-10-18T08:59:41.263Z,28.49
2022-10-18T09:02:37.942Z,28.21
2022-10-18T09:05:14.002Z,28.59
2022-10-18T09:08:10.984Z,28.60
2022-10-18T09:13:54.333Z,28.51
2022-10-18T09:16:33.468Z,28.93
2022-10-18T09:19:39.920Z,29.25
2022-10-18T09:22:21.134Z,28.58
2022-10-18T09:25:26.904Z,29.39
2022-10-18T09:28:19.537Z,29.54
2022-10-18T09:31:10.776Z,29.27
2022-10-18T09:34:03.341Z,29.26
2022-10-18T09:36:40.542Z,29.20
2022-10-18T09:39:27.987Z,29.86
2022-10-18T09:42:22.045Z,29.99
2022-10-18T09:45:25.374Z,30.47
2022-10-18T09:48:42.781Z,30.24
2022-10-18T09:51:25.664Z,30.68
2022-10-18T09:54:05.251Z,31.02
2022-10-18T09:59:30.473Z,29.98
2022-10-18T10:02:00.970Z,30.80
2022-10-18T10:04:31.397Z,31.00
2022-10-18T10:07:04.986Z,31.48
2022-10-18T10:09:58.048Z,30.91
2022-10-18T10:12:34.739Z,31.64
2022-10-18T10:15:29.520Z,31.23
2022-10-18T10:18:16.160Z,31.73
2022-10-18T10:20:54.173Z,31.88
2022-10-18T10:23:23.807Z,31.70
2022-10-18T10:26:06.936Z,31.81
2022-10-18T10:28:49.965Z,32.02
2022-10-18T10:31:33.068Z,31.66
2022-10-18T10:34:23.134Z,31.90
2022-10-18T10:36:55.957Z,31.83
2022-10-18T10:39:27.321Z,31.67
2022-10-18T10:42:04.220Z,31.58
2022-10-18T10:44:38.924Z,31.97
2022-10-18T10:47:09.367Z,32.43
2022-10-18T10:49:59.464Z,31.95
2022-10-18T10:52:31.307Z,32.13
2022-10-18T10:55:23.569Z,31.61
2022-10-18T10:57:54.703Z,31.47
2022-10-18T11:00:40.960Z,31.33
2022-10-18T11:03:34.576Z,31.63
2022-10-18T11:06:04.763Z,31.95
2022-10-18T11:08:43.058Z,31.69
2022-10-18T11:11:44.207Z,32.29
2022-10-18T11:14:32.130Z,32.24
2022-10-18T11:17:22.416Z,31.85
2022-10-18T11:20:31.207Z,31.78
2022-10-18T11:23:23.484Z,31.74
2022-10-18T11:26:11.859Z,32.47
2022-10-18T11:29:11.661Z,31.03
2022-10-18T11:32:02.875Z,31.01
2022-10-18T11:34:33.010Z,30.92
2022-10-18T11:37:27.717Z,30.33
2022-10-18T11:40:05.667Z,30.73
2022-10-18T11:42:40.885Z,31.57
2022-10-18T11:45:17.491Z,31.32
2022-10-18T11:48:18.917Z,31.35
2022-10-18T11:51:20.139Z,31.52
2022-10-18T11:54:27.158Z,31.28
2022-10-18T11:57:00.033Z,31.98
2022-10-18T11:59:30.573Z,32.63
2022-10-18T12:02:40.451Z,31.89
2022-10-18T12:05:23.118Z,32.36
2022-10-18T12:07:57.800Z,32.70
2022-10-18T12:10:44.382Z,32.35
2022-10-18T12:13:45.971Z,32.52
2022-10-18T12:16:17.017Z,32.60
2022-10-18T12:19:13.781Z,32.73
2022-10-18T12:21:45.727Z,33.07
2022-10-18T12:24:24.742Z,33.55
2022-10-18T12:27:02.576Z,33.87
2022-10-18T12:29:53.023Z,34.05
2022-10-18T12:32:31.749Z,33.80
2022-10-18T12:35:22.307Z,33.70
2022-10-18T12:38:28.196Z,33.20
2022-10-18T12:41:00.657Z,31.90
2022-10-18T12:43:39.389Z,31.50
2022-10-18T12:46:13.855Z,31.99
2022-10-18T12:48:50.588Z,32.18
2022-10-18T12:51:24.434Z,32.16
2022-10-18T12:54:13.618Z,32.82
2022-10-18T12:56:48.440Z,32.50
2022-10-18T12:59:18.718Z,32.84
2022-10-18T13:01:55.002Z,33.52
2022-10-18T13:04:35.118Z,34.33
2022-10-18T13:07:09.559Z,34.04
2022-10-18T13:09:48.275Z,34.96
2022-10-18T13:12:19.420Z,35.02
2022-10-18T13:15:12.668Z,35.18
2022-10-18T13:18:07.285Z,35.00
2022-10-18T13:20:52.322Z,34.86
2022-10-18T13:23:38.439Z,34.98
2022-10-18T13:26:46.485Z,34.98
2022-10-18T13:29:28.675Z,34.81
2022-10-18T13:32:26.624Z,34.99
2022-10-18T13:34:56.548Z,35.76
2022-10-18T13:37:27.942Z,34.84
2022-10-18T13:40:27.092Z,35.01
2022-10-18T13:42:57.715Z,35.23
2022-10-18T13:45:33.297Z,35.44
2022-10-18T13:48:38.624Z,35.52
2022-10-18T13:51:53.655Z,35.51
2022-10-18T13:54:45.278Z,35.69
2022-10-18T13:57:40.301Z,34.85
2022-10-18T14:00:49.353Z,36.11
2022-10-18T14:04:01.705Z,35.56
2022-10-18T14:06:43.331Z,36.37
2022-10-18T14:12:46.614Z,36.56
2022-10-18T14:15:41.230Z,35.82
2022-10-18T14:18:33.081Z,36.37
2022-10-18T14:21:14.018Z,36.85
2022-10-18T14:23:47.169Z,37.30
2022-10-18T14:26:22.414Z,37.28
2022-10-18T14:29:17.697Z,36.15
2022-10-18T14:31:57.946Z,36.67
2022-10-18T14:34:28.524Z,36.41
2022-10-18T14:36:58.827Z,36.94
2022-10-18T14:39:34.651Z,37.14
2022-10-18T14:42:05.213Z,36.28
2022-10-18T14:44:36.403Z,36.91
2022-10-18T14:47:25.008Z,37.11
2022-10-18T14:50:00.087Z,37.00
2022-10-18T14:52:35.778Z,37.10
2022-10-18T14:55:06.752Z,37.45
2022-10-18T14:57:40.191Z,38.17
2022-10-18T15:00:20.730Z,36.91
2022-10-18T15:02:51.378Z,37.72
2022-10-18T15:05:23.496Z,37.48
2022-10-18T15:07:55.623Z,36.96
2022-10-18T15:10:35.431Z,38.59
2022-10-18T15:13:10.525Z,38.35
2022-10-18T15:15:42.603Z,38.12
2022-10-18T15:18:28.413Z,38.85
2022-10-18T15:21:24.926Z,37.81
2022-10-18T15:23:56.679Z,37.89
2022-10-18T15:26:31.918Z,38.04
2022-10-18T15:29:04.564Z,38.23
2022-10-18T15:31:44.239Z,38.33
2022-10-18T15:34:40.500Z,38.05
2022-10-18T15:37:44.478Z,37.82
2022-10-18T15:40:26.575Z,38.37
2022-10-18T15:43:02.238Z,37.25
2022-10-18T15:45:34.504Z,37.44
2022-10-18T15:48:07.343Z,38.25
2022-10-18T15:50:56.231Z,37.82
2022-10-18T15:53:36.177Z,38.76
2022-10-18T15:56:31.126Z,38.19
2022-10-18T15:59:05.399Z,37.79
2022-10-18T16:01:40.013Z,38.42
2022-10-18T16:04:25.252Z,38.95
2022-10-18T16:06:55.601Z,41.23
2022-10-18T16:09:27.763Z,39.73
2022-10-18T16:11:59.514Z,38.94
2022-10-18T16:14:30.029Z,39.26
2022-10-18T16:17:08.651Z,39.45
2022-10-18T16:19:38.878Z,39.56
2022-10-18T16:24:47.427Z,41.19
2022-10-18T16:27:17.964Z,40.56
2022-10-18T16:29:48.642Z,39.80
2022-10-18T16:32:18.670Z,39.94
2022-10-18T16:34:48.793Z,40.24
2022-10-18T16:37:18.824Z,39.48
2022-10-18T16:39:48.893Z,39.62
2022-10-18T16:42:19.007Z,39.93
2022-10-18T16:44:50.477Z,39.66
2022-10-18T16:47:21.161Z,39.89
2022-10-18T16:49:51.859Z,39.82
2022-10-18T16:52:22.152Z,40.47
2022-10-18T16:54:52.702Z,40.26
2022-10-18T16:57:22.949Z,39.96
2022-10-18T16:59:53.363Z,42.60
2022-10-18T17:02:23.416Z,42.64
2022-10-18T17:04:53.731Z,39.94
2022-10-18T17:07:27.004Z,40.04
2022-10-18T17:09:57.399Z,40.81
2022-10-18T17:12:27.491Z,40.11
2022-10-18T17:14:57.774Z,40.95
2022-10-18T17:17:27.944Z,41.04
2022-10-18T17:19:57.796Z,40.93
2022-10-18T17:22:27.847Z,39.81
2022-10-18T17:24:58.067Z,40.42
2022-10-18T17:27:28.047Z,41.28
2022-10-18T17:29:59.069Z,40.78
2022-10-18T17:32:28.504Z,39.83
2022-10-18T17:34:59.635Z,41.74
2022-10-18T17:37:29.430Z,41.39
2022-10-18T17:39:59.617Z,39.52
2022-10-18T17:42:29.681Z,40.13
2022-10-18T17:44:59.826Z,40.90
2022-10-18T17:47:30.092Z,41.35
2022-10-18T17:50:00.900Z,40.18
2022-10-18T17:52:31.275Z,41.39
2022-10-18T17:55:01.585Z,40.04
2022-10-18T17:57:31.940Z,40.35
2022-10-18T18:00:04.358Z,41.18
2022-10-18T18:02:42.518Z,41.99
2022-10-18T18:05:14.145Z,42.24
2022-10-18T18:07:45.446Z,42.08
2022-10-18T18:10:16.386Z,40.03
2022-10-18T18:12:46.939Z,40.81
2022-10-18T18:15:17.811Z,42.51
2022-10-18T18:17:56.725Z,42.38
2022-10-18T18:20:29.072Z,41.40
2022-10-18T18:22:59.467Z,42.43
2022-10-18T18:25:29.596Z,42.93
2022-10-18T18:28:03.848Z,41.00
2022-10-18T18:30:42.066Z,40.89
2022-10-18T18:33:12.595Z,41.58
2022-10-18T18:35:42.745Z,41.89
2022-10-18T18:38:12.787Z,40.81
2022-10-18T18:40:42.844Z,40.44
2022-10-18T18:43:23.154Z,41.09
2022-10-18T18:45:54.052Z,43.60
2022-10-18T18:48:24.747Z,44.21
2022-10-18T18:50:55.970Z,42.51
2022-10-18T18:53:28.657Z,40.67
2022-10-18T18:56:09.329Z,40.87
2022-10-18T18:58:41.078Z,44.30
2022-10-18T19:01:20.803Z,43.23
2022-10-18T19:03:54.958Z,43.41
2022-10-18T19:06:29.928Z,44.17
2022-10-18T19:09:04.091Z,43.47
2022-10-18T19:11:38.962Z,43.04
2022-10-18T19:14:10.509Z,42.97
2022-10-18T19:16:47.578Z,43.00
2022-10-18T19:19:26.128Z,42.41
2022-10-18T19:22:01.814Z,43.61
2022-10-18T19:24:33.530Z,43.17
2022-10-18T19:27:10.970Z,43.91
2022-10-18T19:29:42.527Z,43.24
2022-10-18T19:32:14.445Z,43.50
2022-10-18T19:34:45.553Z,43.61
2022-10-18T19:37:17.573Z,42.87
2022-10-18T19:39:47.834Z,43.27
2022-10-18T19:42:22.752Z,43.61
2022-10-18T19:44:56.621Z,44.13
2022-10-18T19:47:27.390Z,43.68
2022-10-18T19:49:58.163Z,44.44
2022-10-18T19:52:29.790Z,45.37
2022-10-18T19:54:59.977Z,45.21
2022-10-18T19:57:30.338Z,44.55
2022-10-18T20:00:00.950Z,44.97
2022-10-18T20:02:41.253Z,45.64
2022-10-18T20:05:11.802Z,45.30
2022-10-18T20:07:43.967Z,45.76
2022-10-18T20:10:14.362Z,45.83
2022-10-18T20:12:44.647Z,46.13
2022-10-18T20:15:15.038Z,45.80
2022-10-18T20:17:45.396Z,45.12
2022-10-18T20:20:15.709Z,46.21
2022-10-18T20:22:45.939Z,45.51
2022-10-18T20:25:16.207Z,46.24
2022-10-18T20:27:46.484Z,45.25
2022-10-18T20:30:16.542Z,45.14
2022-10-18T20:32:46.008Z,42.30
2022-10-18T20:35:16.163Z,44.33
2022-10-18T20:37:46.434Z,44.63
2022-10-18T20:40:17.795Z,44.02
2022-10-18T20:42:47.286Z,44.69
2022-10-18T20:45:17.444Z,44.63
2022-10-18T20:47:47.874Z,44.43
2022-10-18T20:50:18.571Z,45.22
2022-10-18T20:52:52.548Z,45.00
2022-10-18T20:55:23.358Z,44.01
2022-10-18T20:57:53.865Z,44.81
2022-10-18T21:00:24.023Z,44.80
2022-10-18T21:02:54.507Z,45.65
2022-10-18T21:05:24.569Z,45.46
2022-10-18T21:07:54.701Z,46.00
2022-10-18T21:10:25.157Z,46.10
2022-10-18T21:12:55.847Z,45.82
2022-10-18T21:15:25.994Z,46.10
2022-10-18T21:17:56.480Z,46.62
2022-10-18T21:20:26.698Z,46.42
2022-10-18T21:22:56.109Z,46.31
2022-10-18T21:25:26.394Z,46.02
2022-10-18T21:27:56.745Z,46.75
2022-10-18T21:30:26.852Z,46.70
2022-10-18T21:32:57.043Z,46.78
2022-10-18T21:35:27.308Z,46.16
2022-10-18T21:37:57.483Z,46.60
2022-10-18T21:40:27.636Z,47.14
2022-10-18T21:42:57.716Z,46.35
2022-10-18T21:45:27.912Z,46.23
2022-10-18T21:47:58.531Z,46.39
2022-10-18T21:50:28.745Z,45.45
2022-10-18T21:52:58.849Z,45.32
2022-10-18T21:55:28.952Z,45.71
2022-10-18T21:57:59.168Z,44.95
2022-10-18T22:00:29.238Z,45.28
2022-10-18T22:03:10.267Z,43.32
2022-10-18T22:05:41.840Z,43.74
2022-10-18T22:08:12.119Z,43.46
2022-10-18T22:10:43.115Z,43.11
2022-10-18T22:13:13.583Z,42.82
2022-10-18T22:15:43.746Z,42.87
2022-10-18T22:18:13.921Z,42.88
2022-10-18T22:20:44.419Z,42.89
2022-10-18T22:23:15.138Z,43.15
2022-10-18T22:25:45.671Z,43.01
2022-10-18T22:28:15.971Z,43.90
2022-10-18T22:30:46.677Z,43.97
2022-10-18T22:33:16.855Z,44.34
2022-10-18T22:35:51.450Z,43.96
2022-10-18T22:38:22.116Z,44.37
2022-10-18T22:40:53.178Z,45.20
2022-10-18T22:43:24.084Z,45.84
2022-10-18T22:45:54.428Z,46.22
2022-10-18T22:48:24.601Z,45.50
2022-10-18T22:50:54.747Z,46.14
2022-10-18T22:53:25.040Z,46.42
2022-10-18T22:55:56.019Z,45.47
2022-10-18T22:58:27.151Z,45.73
2022-10-18T23:01:09.262Z,43.76
2022-10-18T23:03:40.738Z,46.16
2022-10-18T23:06:43.818Z,42.91
2022-10-18T23:09:14.896Z,45.86
2022-10-18T23:11:45.732Z,45.32
2022-10-18T23:14:16.010Z,45.56
2022-10-18T23:16:46.738Z,45.95
2022-10-18T23:19:18.289Z,46.11
2022-10-18T23:21:48.961Z,46.43
2022-10-18T23:24:19.332Z,46.12
2022-10-18T23:26:49.492Z,45.85
2022-10-18T23:29:19.594Z,45.30
2022-10-18T23:31:49.638Z,45.19
2022-10-18T23:34:19.768Z,44.16
2022-10-18T23:36:49.814Z,44.09
2022-10-18T23:39:20.392Z,44.52
2022-10-18T23:41:51.045Z,44.40
2022-10-18T23:44:21.519Z,44.52
2022-10-18T23:46:52.048Z,45.16
2022-10-18T23:49:25.291Z,44.61
2022-10-18T23:51:55.391Z,44.11
2022-10-18T23:54:25.521Z,44.16
2022-10-18T23:56:55.694Z,44.59
2022-10-18T23:59:26.009Z,44.20
